CG Heron — NHRN — position and weather

sailwx.info

Track history (hours):
 
Tides and Currents Weather Stations Pressure Air Temp Water Temp Dewpoint Dewpoint Depression Visibility Wind Speed Wind Dir Waves Ship Positions

CG Heron

Last reported at 2018-Feb-15 01:04 UTC. Time now 2018-Feb-17 19:25 UTC.
Position N 36°55' W 076°11'.

Length 26 m; draft 1.7 m.

Type: Law enforcement. MMSI: 366999664.

Date/timePositionNaut miles runAvg speedWind from/ knotsBaromVisibWave heightAir tempDewpointWater temp
2018-Feb-15 01:04N 36°55' W 076°11'1 9.3
2018-Feb-15 00:56N 36°56' W 076°11'15011.5
2018-Feb-14 11:50N 34°27' W 076°35'310.8
2018-Feb-14 11:30N 34°30' W 076°37'510.6
2018-Feb-14 11:00N 34°35' W 076°41'510.1
2018-Feb-14 10:30N 34°40' W 076°40'2 4.5
2018-Feb-14 10:00N 34°42' W 076°41'0 0.0
2018-Feb-14 09:29N 34°42' W 076°41'0 0.0
2018-Feb-13 18:58N 34°42' W 076°41'2 5.2
2018-Feb-13 18:30N 34°39' W 076°40'510.0
2018-Feb-13 18:00N 34°36' W 076°44'2 3.7
2018-Feb-13 17:30N 34°34' W 076°44'510.0
2018-Feb-13 17:00N 34°34' W 076°38'4 7.6
2018-Feb-13 16:30N 34°37' W 076°35'2 0.4
2018-Feb-13 11:46N 34°37' W 076°33'0 0.0
2018-Feb-13 11:28N 34°37' W 076°33'0 0.0
2018-Feb-13 10:58N 34°37' W 076°33'0 0.0
2018-Feb-13 10:28N 34°37' W 076°33'0 0.0
2018-Feb-13 09:58N 34°37' W 076°33'0 0.0
2018-Feb-13 09:28N 34°37' W 076°33'0 0.0
2018-Feb-13 08:58N 34°37' W 076°33'0 0.0
2018-Feb-13 08:26N 34°37' W 076°33'0 0.0
2018-Feb-13 07:55N 34°37' W 076°33'0 0.0
2018-Feb-13 07:25N 34°37' W 076°33'0 0.0
2018-Feb-13 06:58N 34°37' W 076°33'0 0.0
2018-Feb-13 06:29N 34°37' W 076°33'0 0.0
2018-Feb-13 05:59N 34°37' W 076°33'0 0.0
2018-Feb-13 05:29N 34°37' W 076°33'0 0.0
2018-Feb-13 04:55N 34°37' W 076°33'0 0.0
2018-Feb-13 04:28N 34°37' W 076°33'0 0.1
2018-Feb-13 03:58N 34°37' W 076°33'0 0.0
2018-Feb-13 03:28N 34°37' W 076°33'0 0.0
2018-Feb-13 02:55N 34°37' W 076°33'0 0.0
2018-Feb-13 02:28N 34°37' W 076°33'0 0.0
2018-Feb-13 01:58N 34°37' W 076°33'0 0.0
2018-Feb-13 01:28N 34°37' W 076°33'0 0.0
2018-Feb-13 00:58N 34°37' W 076°33'0 0.0
2018-Feb-13 00:28N 34°37' W 076°33'0 0.0
2018-Feb-12 23:58N 34°37' W 076°33'0 0.0
2018-Feb-12 23:28N 34°37' W 076°33'0 0.0
2018-Feb-12 22:58N 34°37' W 076°33'0 0.0
2018-Feb-12 22:26N 34°37' W 076°33'0 0.0
2018-Feb-12 21:58N 34°37' W 076°33'0 0.0
2018-Feb-12 21:28N 34°37' W 076°33'0 0.0
2018-Feb-12 20:59N 34°37' W 076°33'0 0.0
2018-Feb-12 20:23N 34°37' W 076°33'0 0.0
2018-Feb-12 19:59N 34°37' W 076°33'0 0.0
2018-Feb-12 19:29N 34°37' W 076°33'0 0.0
2018-Feb-12 18:59N 34°37' W 076°33'0 0.0
2018-Feb-12 18:28N 34°37' W 076°33'0 0.0
2018-Feb-12 17:55N 34°37' W 076°33'0 0.0
2018-Feb-12 17:28N 34°37' W 076°33'0 0.0
2018-Feb-12 16:58N 34°37' W 076°33'0 0.0
2018-Feb-12 16:28N 34°37' W 076°33'0 0.0
2018-Feb-12 15:58N 34°37' W 076°33'0 0.0
2018-Feb-12 15:13N 34°37' W 076°33'0 0.0
2018-Feb-12 14:55N 34°37' W 076°33'0 0.0
2018-Feb-12 14:22N 34°37' W 076°33'1 2.3
2018-Feb-12 14:00N 34°38' W 076°33'3 6.7
2018-Feb-12 13:31N 34°37' W 076°37'3 6.7
2018-Feb-12 13:01N 34°40' W 076°40'2 0.1
2018-Feb-10 16:42N 34°42' W 076°41'0 2.2
2018-Feb-10 16:30N 34°42' W 076°41'1 2.7
2018-Feb-10 16:00N 34°43' W 076°42'0 0.0
2018-Feb-10 15:30N 34°43' W 076°42'3 6.1
2018-Feb-10 15:00N 34°41' W 076°40'4 7.1
2018-Feb-10 14:23N 34°38' W 076°35'2 6.1
2018-Feb-10 14:00N 34°37' W 076°33'0 0.0
2018-Feb-10 13:30N 34°37' W 076°33'0 0.0
2018-Feb-10 13:00N 34°37' W 076°33'0 0.0
2018-Feb-10 12:30N 34°37' W 076°33'0 0.0
2018-Feb-10 12:00N 34°37' W 076°33'0 0.0
2018-Feb-10 11:30N 34°37' W 076°33'0 0.0
2018-Feb-10 10:59N 34°37' W 076°33'0 0.0
2018-Feb-10 10:30N 34°37' W 076°33'0 0.0
2018-Feb-10 10:00N 34°37' W 076°33'0 0.0
2018-Feb-10 09:30N 34°37' W 076°33'0 0.0
2018-Feb-10 09:00N 34°37' W 076°33'0 0.0
2018-Feb-10 08:30N 34°37' W 076°33'0 0.0
2018-Feb-10 08:00N 34°37' W 076°33'0 0.0
2018-Feb-10 07:30N 34°37' W 076°33'0 0.0
2018-Feb-10 07:00N 34°37' W 076°33'0 0.0
2018-Feb-10 06:30N 34°37' W 076°33'0 0.0
2018-Feb-10 06:00N 34°37' W 076°33'0 0.0
2018-Feb-10 05:30N 34°37' W 076°33'0 0.0
2018-Feb-10 04:59N 34°37' W 076°33'0 0.0
2018-Feb-10 04:30N 34°37' W 076°33'0 0.0
2018-Feb-10 04:00N 34°37' W 076°33'0 0.0
2018-Feb-10 03:30N 34°37' W 076°33'0 0.0
2018-Feb-10 03:00N 34°37' W 076°33'0 0.0
2018-Feb-10 02:30N 34°37' W 076°33'0 0.0
2018-Feb-10 02:00N 34°37' W 076°33'0 0.0
2018-Feb-10 01:30N 34°37' W 076°33'0 0.0
2018-Feb-10 01:00N 34°37' W 076°33'0 0.0
2018-Feb-10 00:30N 34°37' W 076°33'0 0.0
2018-Feb-10 00:00N 34°37' W 076°33'0 0.0
2018-Feb-09 23:30N 34°37' W 076°33'0 0.1
2018-Feb-09 23:00N 34°37' W 076°33'0 0.0
2018-Feb-09 22:46N 34°37' W 076°33'4 3.2
2018-Feb-09 21:30N 34°36' W 076°37'  
2018-Feb-06 17:38N 34°26' W 076°40'111.2
2018-Feb-06 17:30N 34°27' W 076°41'611.2
2018-Feb-06 17:00N 34°33' W 076°41'511.0
2018-Feb-06 16:30N 34°38' W 076°41'3 7.0
2018-Feb-06 16:00N 34°42' W 076°41'0 0.0
2018-Feb-06 15:30N 34°42' W 076°41'0 0.0
2018-Feb-06 15:00N 34°42' W 076°41'0 0.0
2018-Feb-06 14:30N 34°42' W 076°41'0 0.6
2018-Feb-06 14:00N 34°42' W 076°41'4 8.0
2018-Feb-06 13:30N 34°39' W 076°38'4 8.5
2018-Feb-06 13:00N 34°37' W 076°33'0 0.0
2018-Feb-06 12:30N 34°37' W 076°33'0 0.0
2018-Feb-06 11:59N 34°37' W 076°33'0 0.0
2018-Feb-06 11:30N 34°37' W 076°33'0 0.0
2018-Feb-06 11:00N 34°37' W 076°33'0 0.0
2018-Feb-06 10:30N 34°37' W 076°33'0 0.0
2018-Feb-06 10:00N 34°37' W 076°33'0 0.0
2018-Feb-06 09:00N 34°37' W 076°33'0 0.0
2018-Feb-06 08:30N 34°37' W 076°33'0 0.0
2018-Feb-06 08:00N 34°37' W 076°33'0 0.0
2018-Feb-06 07:29N 34°37' W 076°33'0 0.0
2018-Feb-06 07:00N 34°37' W 076°33'0 0.0
2018-Feb-06 06:30N 34°37' W 076°33'0 0.0
2018-Feb-06 06:00N 34°37' W 076°33'0 0.0
2018-Feb-06 05:30N 34°37' W 076°33'5 4.9
2018-Feb-06 04:30N 34°34' W 076°37'14011.4
2018-Feb-05 16:18N 36°49' W 075°55'412.2
2018-Feb-05 16:00N 36°53' W 075°56'713.7
2018-Feb-05 15:30N 36°57' W 076°03'712.7
2018-Feb-05 14:59N 36°55' W 076°11'0 0.4
2018-Feb-05 14:28N 36°55' W 076°11'  
Track history (hours):
 
Tides and Currents Weather Stations Pressure Air Temp Water Temp Dewpoint Dewpoint Depression Visibility Wind Speed Wind Dir Waves Ship Positions

CG Heron

Last reported at 2018-Feb-15 01:04 UTC. Time now 2018-Feb-17 19:25 UTC.
Position N 36°55' W 076°11'.

Length 26 m; draft 1.7 m.

Type: Law enforcement. MMSI: 366999664.

Date/timePositionNaut miles runAvg speedWind from/ knotsBaromVisibWave heightAir tempDewpointWater temp
2018-Feb-15 01:04N 36°55' W 076°11'1 9.3
2018-Feb-15 00:56N 36°56' W 076°11'15011.5
2018-Feb-14 11:50N 34°27' W 076°35'310.8
2018-Feb-14 11:30N 34°30' W 076°37'510.6
2018-Feb-14 11:00N 34°35' W 076°41'510.1
2018-Feb-14 10:30N 34°40' W 076°40'2 4.5
2018-Feb-14 10:00N 34°42' W 076°41'0 0.0
2018-Feb-14 09:29N 34°42' W 076°41'0 0.0
2018-Feb-13 18:58N 34°42' W 076°41'2 5.2
2018-Feb-13 18:30N 34°39' W 076°40'510.0
2018-Feb-13 18:00N 34°36' W 076°44'2 3.7
2018-Feb-13 17:30N 34°34' W 076°44'510.0
2018-Feb-13 17:00N 34°34' W 076°38'4 7.6
2018-Feb-13 16:30N 34°37' W 076°35'2 0.4
2018-Feb-13 11:46N 34°37' W 076°33'0 0.0
2018-Feb-13 11:28N 34°37' W 076°33'0 0.0
2018-Feb-13 10:58N 34°37' W 076°33'0 0.0
2018-Feb-13 10:28N 34°37' W 076°33'0 0.0
2018-Feb-13 09:58N 34°37' W 076°33'0 0.0
2018-Feb-13 09:28N 34°37' W 076°33'0 0.0
2018-Feb-13 08:58N 34°37' W 076°33'0 0.0
2018-Feb-13 08:26N 34°37' W 076°33'0 0.0
2018-Feb-13 07:55N 34°37' W 076°33'0 0.0
2018-Feb-13 07:25N 34°37' W 076°33'0 0.0
2018-Feb-13 06:58N 34°37' W 076°33'0 0.0
2018-Feb-13 06:29N 34°37' W 076°33'0 0.0
2018-Feb-13 05:59N 34°37' W 076°33'0 0.0
2018-Feb-13 05:29N 34°37' W 076°33'0 0.0
2018-Feb-13 04:55N 34°37' W 076°33'0 0.0
2018-Feb-13 04:28N 34°37' W 076°33'0 0.1
2018-Feb-13 03:58N 34°37' W 076°33'0 0.0
2018-Feb-13 03:28N 34°37' W 076°33'0 0.0
2018-Feb-13 02:55N 34°37' W 076°33'0 0.0
2018-Feb-13 02:28N 34°37' W 076°33'0 0.0
2018-Feb-13 01:58N 34°37' W 076°33'0 0.0
2018-Feb-13 01:28N 34°37' W 076°33'0 0.0
2018-Feb-13 00:58N 34°37' W 076°33'0 0.0
2018-Feb-13 00:28N 34°37' W 076°33'0 0.0
2018-Feb-12 23:58N 34°37' W 076°33'0 0.0
2018-Feb-12 23:28N 34°37' W 076°33'0 0.0
2018-Feb-12 22:58N 34°37' W 076°33'0 0.0
2018-Feb-12 22:26N 34°37' W 076°33'0 0.0
2018-Feb-12 21:58N 34°37' W 076°33'0 0.0
2018-Feb-12 21:28N 34°37' W 076°33'0 0.0
2018-Feb-12 20:59N 34°37' W 076°33'0 0.0
2018-Feb-12 20:23N 34°37' W 076°33'0 0.0
2018-Feb-12 19:59N 34°37' W 076°33'0 0.0
2018-Feb-12 19:29N 34°37' W 076°33'0 0.0
2018-Feb-12 18:59N 34°37' W 076°33'0 0.0
2018-Feb-12 18:28N 34°37' W 076°33'0 0.0
2018-Feb-12 17:55N 34°37' W 076°33'0 0.0
2018-Feb-12 17:28N 34°37' W 076°33'0 0.0
2018-Feb-12 16:58N 34°37' W 076°33'0 0.0
2018-Feb-12 16:28N 34°37' W 076°33'0 0.0
2018-Feb-12 15:58N 34°37' W 076°33'0 0.0
2018-Feb-12 15:13N 34°37' W 076°33'0 0.0
2018-Feb-12 14:55N 34°37' W 076°33'0 0.0
2018-Feb-12 14:22N 34°37' W 076°33'1 2.3
2018-Feb-12 14:00N 34°38' W 076°33'3 6.7
2018-Feb-12 13:31N 34°37' W 076°37'3 6.7
2018-Feb-12 13:01N 34°40' W 076°40'2 0.1
2018-Feb-10 16:42N 34°42' W 076°41'0 2.2
2018-Feb-10 16:30N 34°42' W 076°41'1 2.7
2018-Feb-10 16:00N 34°43' W 076°42'0 0.0
2018-Feb-10 15:30N 34°43' W 076°42'3 6.1
2018-Feb-10 15:00N 34°41' W 076°40'4 7.1
2018-Feb-10 14:23N 34°38' W 076°35'2 6.1
2018-Feb-10 14:00N 34°37' W 076°33'0 0.0
2018-Feb-10 13:30N 34°37' W 076°33'0 0.0
2018-Feb-10 13:00N 34°37' W 076°33'0 0.0
2018-Feb-10 12:30N 34°37' W 076°33'0 0.0
2018-Feb-10 12:00N 34°37' W 076°33'0 0.0
2018-Feb-10 11:30N 34°37' W 076°33'0 0.0
2018-Feb-10 10:59N 34°37' W 076°33'0 0.0
2018-Feb-10 10:30N 34°37' W 076°33'0 0.0
2018-Feb-10 10:00N 34°37' W 076°33'0 0.0
2018-Feb-10 09:30N 34°37' W 076°33'0 0.0
2018-Feb-10 09:00N 34°37' W 076°33'0 0.0
2018-Feb-10 08:30N 34°37' W 076°33'0 0.0
2018-Feb-10 08:00N 34°37' W 076°33'0 0.0
2018-Feb-10 07:30N 34°37' W 076°33'0 0.0
2018-Feb-10 07:00N 34°37' W 076°33'0 0.0
2018-Feb-10 06:30N 34°37' W 076°33'0 0.0
2018-Feb-10 06:00N 34°37' W 076°33'0 0.0
2018-Feb-10 05:30N 34°37' W 076°33'0 0.0
2018-Feb-10 04:59N 34°37' W 076°33'0 0.0
2018-Feb-10 04:30N 34°37' W 076°33'0 0.0
2018-Feb-10 04:00N 34°37' W 076°33'0 0.0
2018-Feb-10 03:30N 34°37' W 076°33'0 0.0
2018-Feb-10 03:00N 34°37' W 076°33'0 0.0
2018-Feb-10 02:30N 34°37' W 076°33'0 0.0
2018-Feb-10 02:00N 34°37' W 076°33'0 0.0
2018-Feb-10 01:30N 34°37' W 076°33'0 0.0
2018-Feb-10 01:00N 34°37' W 076°33'0 0.0
2018-Feb-10 00:30N 34°37' W 076°33'0 0.0
2018-Feb-10 00:00N 34°37' W 076°33'0 0.0
2018-Feb-09 23:30N 34°37' W 076°33'0 0.1
2018-Feb-09 23:00N 34°37' W 076°33'0 0.0
2018-Feb-09 22:46N 34°37' W 076°33'4 3.2
2018-Feb-09 21:30N 34°36' W 076°37'  
2018-Feb-06 17:38N 34°26' W 076°40'111.2
2018-Feb-06 17:30N 34°27' W 076°41'611.2
2018-Feb-06 17:00N 34°33' W 076°41'511.0
2018-Feb-06 16:30N 34°38' W 076°41'3 7.0
2018-Feb-06 16:00N 34°42' W 076°41'0 0.0
2018-Feb-06 15:30N 34°42' W 076°41'0 0.0
2018-Feb-06 15:00N 34°42' W 076°41'0 0.0
2018-Feb-06 14:30N 34°42' W 076°41'0 0.6
2018-Feb-06 14:00N 34°42' W 076°41'4 8.0
2018-Feb-06 13:30N 34°39' W 076°38'4 8.5
2018-Feb-06 13:00N 34°37' W 076°33'0 0.0
2018-Feb-06 12:30N 34°37' W 076°33'0 0.0
2018-Feb-06 11:59N 34°37' W 076°33'0 0.0
2018-Feb-06 11:30N 34°37' W 076°33'0 0.0
2018-Feb-06 11:00N 34°37' W 076°33'0 0.0
2018-Feb-06 10:30N 34°37' W 076°33'0 0.0
2018-Feb-06 10:00N 34°37' W 076°33'0 0.0
2018-Feb-06 09:00N 34°37' W 076°33'0 0.0
2018-Feb-06 08:30N 34°37' W 076°33'0 0.0
2018-Feb-06 08:00N 34°37' W 076°33'0 0.0
2018-Feb-06 07:29N 34°37' W 076°33'0 0.0
2018-Feb-06 07:00N 34°37' W 076°33'0 0.0
2018-Feb-06 06:30N 34°37' W 076°33'0 0.0
2018-Feb-06 06:00N 34°37' W 076°33'0 0.0
2018-Feb-06 05:30N 34°37' W 076°33'5 4.9
2018-Feb-06 04:30N 34°34' W 076°37'14011.4
2018-Feb-05 16:18N 36°49' W 075°55'412.2
2018-Feb-05 16:00N 36°53' W 075°56'713.7
2018-Feb-05 15:30N 36°57' W 076°03'712.7
2018-Feb-05 14:59N 36°55' W 076°11'0 0.4
2018-Feb-05 14:28N 36°55' W 076°11'  

Dump ship's entire track history